Reservoir, Mississippi
Current Conditions -  °F | °C
As of 2:54 PM on Saturday 25 Oct 2014 (Local Time) from KJAN Reporting Station
Clear Clear  
Wind Chill: 82°   Ceiling: Unl
Heat Index: 82°   Visibility: 10mi
Dew Point: 60°   Wind: 5mph
Humidity: 47%   Direction: NA
Pressure: 30.08"   Gusts: NA
Location:  32.2729°N, 89.9857°W
Report Text: KJAN 251954Z VRB04KT 10SM CLR 28/16 A3008 RMK AO2 SLP182 T02780156
Loading
Personal Weather Stations






























Interactive Weather Map New forecast layout! Learn more

10-Day Weather Forecast

Advertisements
Track Severe Weather on mobile